Time;durP1;ratioP1;P1;durP2;ratioP2;P2;SDS_P1;SDS_P2;PMS_P1;PMS_P2;Temp;Humidity;BMP_temperature;BMP_pressure;BME280_temperature;BME280_humidity;BME280_pressure;Samples;Min_cycle;Max_cycle;Signal;HPM_P1;HPM_P2
2024/04/21 00:01:18;;;;;;;17.67;2.03;;;;;;;;;;5376677;26;20081;-72
2024/04/21 00:03:46;;;;;;;9.32;2.45;;;;;;;;;;5377269;26;20018;-72
2024/04/21 00:06:13;;;;;;;9.77;2.40;;;;;;;;;;5377308;26;20004;-72
2024/04/21 00:08:40;;;;;;;12.82;2.40;;;;;;;;;;5377096;26;20391;-72
2024/04/21 00:11:06;;;;;;;11.27;2.42;;;;;;;;;;5376549;26;20004;-72
2024/04/21 00:13:33;;;;;;;13.73;2.13;;;;;;;;;;5377281;26;20000;-72
2024/04/21 00:16:00;;;;;;;8.65;2.05;;;;;;;;;;5377453;26;20000;-73
2024/04/21 00:18:27;;;;;;;8.18;1.88;;;;;;;;;;5376797;26;20012;-72
2024/04/21 00:20:54;;;;;;;11.73;2.42;;;;;;;;;;5377251;26;20000;-72
2024/04/21 00:23:21;;;;;;;12.45;2.60;;;;;;;;;;5376401;26;20583;-72
2024/04/21 00:26:00;;;;;;;10.57;2.33;;;;;;;;;;5377117;26;20455;-72
2024/04/21 00:28:30;;;;;;;13.18;2.17;;;;;;;;;;5377078;26;20004;-72
2024/04/21 00:30:57;;;;;;;13.38;2.70;;;;;;;;;;5377166;26;20019;-72
2024/04/21 00:33:24;;;;;;;9.95;2.25;;;;;;;;;;5376196;26;20020;-72
2024/04/21 00:35:51;;;;;;;12.13;3.33;;;;;;;;;;5376678;26;20039;-72
2024/04/21 00:38:18;;;;;;;8.82;2.22;;;;;;;;;;5376184;26;20377;-72
2024/04/21 00:40:45;;;;;;;11.35;2.50;;;;;;;;;;5376839;26;20004;-72
2024/04/21 00:43:12;;;;;;;10.50;2.25;;;;;;;;;;5375387;26;20541;-73
2024/04/21 00:45:43;;;;;;;6.63;2.08;;;;;;;;;;5376614;26;20049;-73
2024/04/21 00:48:13;;;;;;;11.43;2.60;;;;;;;;;;5374287;26;20081;-72
2024/04/21 00:50:45;;;;;;;8.25;2.15;;;;;;;;;;5376600;26;20603;-72
2024/04/21 00:53:14;;;;;;;11.05;2.42;;;;;;;;;;5345373;26;20019;-72
2024/04/21 00:55:41;;;;;;;17.02;2.35;;;;;;;;;;5376943;26;20015;-72
2024/04/21 00:58:08;;;;;;;10.32;2.55;;;;;;;;;;5375930;26;20018;-72
2024/04/21 01:00:36;;;;;;;11.07;2.20;;;;;;;;;;5376430;26;20005;-72
2024/04/21 01:03:04;;;;;;;10.15;2.47;;;;;;;;;;5376236;26;20000;-72
2024/04/21 01:05:31;;;;;;;8.30;2.80;;;;;;;;;;5376146;26;20000;-72
2024/04/21 01:07:58;;;;;;;12.45;2.40;;;;;;;;;;5376772;26;20488;-73
2024/04/21 01:10:25;;;;;;;9.15;2.25;;;;;;;;;;5375837;26;20667;-72
2024/04/21 01:12:51;;;;;;;8.90;2.13;;;;;;;;;;5376309;26;20011;-72
2024/04/21 01:15:18;;;;;;;8.70;2.22;;;;;;;;;;5375531;26;20392;-72
2024/04/21 01:17:45;;;;;;;10.90;2.65;;;;;;;;;;5376035;26;20004;-72
2024/04/21 01:20:12;;;;;;;7.30;1.70;;;;;;;;;;5375438;26;20000;-72
2024/04/21 01:22:49;;;;;;;9.95;2.28;;;;;;;;;;5376464;26;20004;-72
2024/04/21 01:25:16;;;;;;;7.57;2.10;;;;;;;;;;5375540;26;20005;-72
2024/04/21 01:27:43;;;;;;;8.48;2.05;;;;;;;;;;5376427;26;20358;-72
2024/04/21 01:30:11;;;;;;;10.18;2.10;;;;;;;;;;5375539;26;20077;-72
2024/04/21 01:32:39;;;;;;;10.68;2.00;;;;;;;;;;5375824;26;20007;-72
2024/04/21 01:35:06;;;;;;;10.60;2.75;;;;;;;;;;5375732;26;20027;-72
2024/04/21 01:37:35;;;;;;;9.10;1.98;;;;;;;;;;5376449;26;20000;-72
2024/04/21 01:40:06;;;;;;;9.48;2.33;;;;;;;;;;5376175;26;20016;-72
2024/04/21 01:42:33;;;;;;;7.25;2.20;;;;;;;;;;5354242;26;20012;-72
2024/04/21 01:45:00;;;;;;;11.18;2.15;;;;;;;;;;5340800;26;20421;-72
2024/04/21 01:47:26;;;;;;;10.55;2.55;;;;;;;;;;5340765;26;20430;-72
2024/04/21 01:49:53;;;;;;;9.45;2.20;;;;;;;;;;5341155;26;20078;-72
2024/04/21 01:52:20;;;;;;;16.05;2.80;;;;;;;;;;5340167;26;20009;-72
2024/04/21 01:54:47;;;;;;;9.65;2.28;;;;;;;;;;5340732;26;20410;-72
2024/04/21 01:57:14;;;;;;;10.30;2.40;;;;;;;;;;5340402;26;20481;-73
2024/04/21 01:59:40;;;;;;;8.60;2.20;;;;;;;;;;5341401;26;20445;-72
2024/04/21 02:02:07;;;;;;;8.38;2.05;;;;;;;;;;5340262;26;20000;-72
2024/04/21 02:04:34;;;;;;;11.20;1.95;;;;;;;;;;5340576;26;20000;-72
2024/04/21 02:07:01;;;;;;;9.38;2.40;;;;;;;;;;5340736;26;20379;-72
2024/04/21 02:09:28;;;;;;;9.85;2.13;;;;;;;;;;5354844;26;20073;-72
2024/04/21 02:11:55;;;;;;;8.65;1.95;;;;;;;;;;5340979;26;20450;-72
2024/04/21 02:14:21;;;;;;;11.13;2.63;;;;;;;;;;5340219;26;20008;-72
2024/04/21 02:16:48;;;;;;;10.27;2.28;;;;;;;;;;5340546;26;20032;-72
2024/04/21 02:19:15;;;;;;;10.10;2.20;;;;;;;;;;5340084;26;20011;-72
2024/04/21 02:21:42;;;;;;;10.40;2.10;;;;;;;;;;5340773;26;20005;-72
2024/04/21 02:24:09;;;;;;;8.90;2.55;;;;;;;;;;5339931;26;20009;-73
2024/04/21 02:26:36;;;;;;;10.57;2.03;;;;;;;;;;5340197;26;20004;-72
2024/04/21 02:29:03;;;;;;;9.00;2.55;;;;;;;;;;5340395;26;20441;-72
2024/04/21 02:31:30;;;;;;;10.88;3.22;;;;;;;;;;5340484;26;20005;-72
2024/04/21 02:33:57;;;;;;;11.07;2.00;;;;;;;;;;5340550;26;20420;-72
2024/04/21 02:36:24;;;;;;;6.82;2.25;;;;;;;;;;5373538;26;20365;-72
2024/04/21 02:38:51;;;;;;;8.15;2.00;;;;;;;;;;5375069;26;20000;-72
2024/04/21 02:41:18;;;;;;;6.35;1.67;;;;;;;;;;5374643;26;20489;-72
2024/04/21 02:43:45;;;;;;;9.27;2.17;;;;;;;;;;5375383;26;20393;-72
2024/04/21 02:46:12;;;;;;;8.98;2.25;;;;;;;;;;5374922;26;20008;-73
2024/04/21 02:48:39;;;;;;;8.75;2.38;;;;;;;;;;5374882;26;20000;-72
2024/04/21 02:51:06;;;;;;;9.50;1.90;;;;;;;;;;5374300;26;20048;-72
2024/04/21 02:53:32;;;;;;;12.43;2.17;;;;;;;;;;5374951;26;20084;-72
2024/04/21 02:55:59;;;;;;;12.05;2.42;;;;;;;;;;5375359;26;20015;-72
2024/04/21 02:58:26;;;;;;;8.68;1.80;;;;;;;;;;5374408;26;20028;-72
2024/04/21 03:00:53;;;;;;;15.40;3.13;;;;;;;;;;5374923;26;20000;-72
2024/04/21 03:03:20;;;;;;;9.68;2.30;;;;;;;;;;5374148;26;20042;-72
2024/04/21 03:05:57;;;;;;;6.50;2.05;;;;;;;;;;5376716;26;20004;-72
2024/04/21 03:08:25;;;;;;;13.65;3.03;;;;;;;;;;5377810;26;20446;-72
2024/04/21 03:10:51;;;;;;;9.38;2.13;;;;;;;;;;5378064;26;20004;-72
2024/04/21 03:13:19;;;;;;;6.68;2.20;;;;;;;;;;5377266;26;20015;-72
2024/04/21 03:15:45;;;;;;;14.18;2.55;;;;;;;;;;5377931;26;20387;-72
2024/04/21 03:18:12;;;;;;;11.07;2.40;;;;;;;;;;5377648;26;20015;-73
2024/04/21 03:20:39;;;;;;;9.63;2.10;;;;;;;;;;5377786;26;20019;-72
2024/04/21 03:23:06;;;;;;;8.18;1.92;;;;;;;;;;5377297;26;20551;-72
2024/04/21 03:25:33;;;;;;;6.90;2.10;;;;;;;;;;5377277;26;20028;-72
2024/04/21 03:28:00;;;;;;;8.13;2.58;;;;;;;;;;5377856;26;20000;-72
2024/04/21 03:30:26;;;;;;;7.85;2.42;;;;;;;;;;5377956;26;20024;-72
2024/04/21 03:32:53;;;;;;;8.52;2.15;;;;;;;;;;5377799;26;20011;-72
2024/04/21 03:35:20;;;;;;;10.77;2.63;;;;;;;;;;5358512;26;20343;-72
2024/04/21 03:37:47;;;;;;;8.93;2.05;;;;;;;;;;5342763;26;20375;-72
2024/04/21 03:40:14;;;;;;;15.18;2.50;;;;;;;;;;5342039;26;20323;-72
2024/04/21 03:42:40;;;;;;;9.15;2.08;;;;;;;;;;5343173;26;20472;-72
2024/04/21 03:45:08;;;;;;;13.80;2.83;;;;;;;;;;5342155;26;20016;-73
2024/04/21 03:47:35;;;;;;;15.52;2.58;;;;;;;;;;5342666;26;20008;-72
2024/04/21 03:50:02;;;;;;;7.30;1.95;;;;;;;;;;5342530;26;20001;-72
2024/04/21 03:52:29;;;;;;;8.27;2.30;;;;;;;;;;5342341;26;20012;-72
2024/04/21 03:54:56;;;;;;;10.93;1.95;;;;;;;;;;5342516;26;20009;-72
2024/04/21 03:57:27;;;;;;;7.07;1.90;;;;;;;;;;5342365;26;20019;-73
2024/04/21 03:59:53;;;;;;;9.77;2.03;;;;;;;;;;5342282;26;20363;-72
2024/04/21 04:02:20;;;;;;;10.73;2.10;;;;;;;;;;5342293;26;20513;-72
2024/04/21 04:04:47;;;;;;;8.52;2.28;;;;;;;;;;5342811;26;20001;-72
2024/04/21 04:07:14;;;;;;;10.80;2.45;;;;;;;;;;5341875;26;20468;-72
2024/04/21 04:09:41;;;;;;;10.27;2.20;;;;;;;;;;5342498;26;20001;-72
2024/04/21 04:12:07;;;;;;;11.95;2.67;;;;;;;;;;5341823;26;20005;-72
2024/04/21 04:14:34;;;;;;;12.60;3.25;;;;;;;;;;5342644;26;20005;-72
2024/04/21 04:17:01;;;;;;;10.13;2.50;;;;;;;;;;5341107;26;20016;-72
2024/04/21 04:19:28;;;;;;;11.80;2.58;;;;;;;;;;5341798;26;20001;-72
2024/04/21 04:21:55;;;;;;;8.27;2.03;;;;;;;;;;5342330;26;20014;-75
2024/04/21 04:24:21;;;;;;;9.13;2.33;;;;;;;;;;5341588;26;20082;-72
2024/04/21 04:26:48;;;;;;;8.55;2.00;;;;;;;;;;5342033;26;20324;-73
2024/04/21 04:29:15;;;;;;;9.05;2.35;;;;;;;;;;5341050;26;20009;-72
2024/04/21 04:31:42;;;;;;;10.70;2.78;;;;;;;;;;5358096;26;20012;-72
2024/04/21 04:34:08;;;;;;;8.45;2.58;;;;;;;;;;5374472;26;20334;-72
2024/04/21 04:36:35;;;;;;;9.25;2.80;;;;;;;;;;5375144;26;20007;-72
2024/04/21 04:39:04;;;;;;;10.55;2.58;;;;;;;;;;5375242;26;20004;-72
2024/04/21 04:41:31;;;;;;;12.15;2.13;;;;;;;;;;5357026;26;20037;-72
2024/04/21 04:43:58;;;;;;;10.52;2.80;;;;;;;;;;5375533;26;20000;-72
2024/04/21 04:46:25;;;;;;;7.35;1.77;;;;;;;;;;5374557;26;20004;-72
2024/04/21 04:48:52;;;;;;;15.63;2.78;;;;;;;;;;5375296;26;20521;-72
2024/04/21 04:51:19;;;;;;;10.20;2.30;;;;;;;;;;5374624;26;20015;-72
2024/04/21 04:53:45;;;;;;;8.25;2.00;;;;;;;;;;5374945;26;20005;-72
2024/04/21 04:56:12;;;;;;;10.32;2.45;;;;;;;;;;5374751;26;20015;-72
2024/04/21 04:58:39;;;;;;;10.15;2.38;;;;;;;;;;5375127;26;20326;-72
2024/04/21 05:01:06;;;;;;;8.38;2.83;;;;;;;;;;5374366;26;20036;-73
2024/04/21 05:03:33;;;;;;;12.57;2.78;;;;;;;;;;5375428;26;20446;-72
2024/04/21 05:05:59;;;;;;;13.15;2.60;;;;;;;;;;5375290;26;20008;-72
2024/04/21 05:08:26;;;;;;;8.57;2.03;;;;;;;;;;5375650;26;20019;-72
2024/04/21 05:10:53;;;;;;;10.25;2.50;;;;;;;;;;5375661;26;20449;-72
2024/04/21 05:13:20;;;;;;;8.65;1.98;;;;;;;;;;5375097;26;20015;-72
2024/04/21 05:15:47;;;;;;;10.07;2.53;;;;;;;;;;5375312;26;20016;-72
2024/04/21 05:18:13;;;;;;;8.85;2.10;;;;;;;;;;5374532;26;20529;-73
2024/04/21 05:20:40;;;;;;;10.40;2.75;;;;;;;;;;5377249;26;20003;-72
2024/04/21 05:23:07;;;;;;;9.32;2.55;;;;;;;;;;5376400;26;20446;-72
2024/04/21 05:25:34;;;;;;;7.55;1.98;;;;;;;;;;5376157;26;20036;-73
2024/04/21 05:28:01;;;;;;;12.73;2.33;;;;;;;;;;5376195;26;20000;-72
2024/04/21 05:30:27;;;;;;;10.57;2.50;;;;;;;;;;5376518;26;20077;-72
2024/04/21 05:32:54;;;;;;;11.20;2.78;;;;;;;;;;5376769;26;20015;-72
2024/04/21 05:35:21;;;;;;;10.13;2.58;;;;;;;;;;5375641;26;20004;-73
2024/04/21 05:37:48;;;;;;;8.85;2.30;;;;;;;;;;5376393;26;20004;-72
2024/04/21 05:40:14;;;;;;;8.07;2.22;;;;;;;;;;5376130;26;20453;-75
2024/04/21 05:42:41;;;;;;;13.90;2.25;;;;;;;;;;5376970;26;20411;-75
2024/04/21 05:45:08;;;;;;;12.50;2.65;;;;;;;;;;5352357;26;20009;-75
2024/04/21 05:47:35;;;;;;;13.93;2.30;;;;;;;;;;5376672;26;20463;-73
2024/04/21 05:50:02;;;;;;;11.20;2.25;;;;;;;;;;5376494;26;20000;-72
2024/04/21 05:52:29;;;;;;;7.28;2.00;;;;;;;;;;5376090;26;20004;-73
2024/04/21 05:54:56;;;;;;;10.23;2.47;;;;;;;;;;5373181;26;20005;-73
2024/04/21 05:57:23;;;;;;;11.35;2.78;;;;;;;;;;5340972;26;20344;-73
2024/04/21 05:59:50;;;;;;;10.43;2.55;;;;;;;;;;5365297;26;20346;-74
2024/04/21 06:02:17;;;;;;;8.30;2.33;;;;;;;;;;5337364;26;20032;-74
2024/04/21 06:04:43;;;;;;;12.98;2.22;;;;;;;;;;5373801;26;20000;-74
2024/04/21 06:07:10;;;;;;;9.38;2.45;;;;;;;;;;5375993;26;20000;-73
2024/04/21 06:09:37;;;;;;;11.02;2.63;;;;;;;;;;5376165;26;20015;-73
2024/04/21 06:12:04;;;;;;;6.22;1.95;;;;;;;;;;5376785;26;20004;-72
2024/04/21 06:14:31;;;;;;;6.93;2.35;;;;;;;;;;5367274;26;20008;-73
2024/04/21 06:16:58;;;;;;;12.27;2.65;;;;;;;;;;5376044;26;20004;-72
2024/04/21 06:19:25;;;;;;;12.15;2.63;;;;;;;;;;5376099;26;20012;-72
2024/04/21 06:21:52;;;;;;;13.45;2.13;;;;;;;;;;5374792;26;20004;-72
2024/04/21 06:24:19;;;;;;;13.23;3.03;;;;;;;;;;5368438;26;20066;-73
2024/04/21 06:26:46;;;;;;;11.40;2.83;;;;;;;;;;5366539;26;20004;-72
2024/04/21 06:29:15;;;;;;;9.30;2.58;;;;;;;;;;5355663;26;20472;-73
2024/04/21 06:31:42;;;;;;;9.98;1.85;;;;;;;;;;5375908;26;20008;-73
2024/04/21 06:34:10;;;;;;;12.32;2.85;;;;;;;;;;5371280;26;20080;-73
2024/04/21 06:36:36;;;;;;;12.18;2.58;;;;;;;;;;5352437;26;20029;-73
2024/04/21 06:39:03;;;;;;;7.30;2.03;;;;;;;;;;5374640;26;20004;-73
2024/04/21 06:41:30;;;;;;;8.73;2.15;;;;;;;;;;5361340;26;20012;-72
2024/04/21 06:43:57;;;;;;;11.65;2.63;;;;;;;;;;5382386;26;20019;-73
2024/04/21 06:46:24;;;;;;;9.15;2.38;;;;;;;;;;5366815;26;24697;-73
2024/04/21 06:48:51;;;;;;;12.60;2.40;;;;;;;;;;5352882;26;20051;-73
2024/04/21 06:51:18;;;;;;;9.73;2.40;;;;;;;;;;5352490;26;20001;-73
2024/04/21 06:53:46;;;;;;;8.50;2.28;;;;;;;;;;5374390;26;20011;-73
2024/04/21 06:56:12;;;;;;;8.75;1.98;;;;;;;;;;5375234;26;20008;-73
2024/04/21 06:58:39;;;;;;;7.43;1.83;;;;;;;;;;5366053;26;20021;-73
2024/04/21 07:01:06;;;;;;;9.18;2.88;;;;;;;;;;5374326;26;20020;-73
2024/04/21 07:03:33;;;;;;;11.20;2.35;;;;;;;;;;5362776;26;20051;-72
2024/04/21 07:06:00;;;;;;;9.18;2.42;;;;;;;;;;5389169;26;20297;-73
2024/04/21 07:08:27;;;;;;;10.20;2.13;;;;;;;;;;5374101;26;20051;-73
2024/04/21 07:10:54;;;;;;;9.27;2.30;;;;;;;;;;5375595;26;20098;-73
2024/04/21 07:13:25;;;;;;;9.73;2.20;;;;;;;;;;5340048;26;20017;-73
2024/04/21 07:15:52;;;;;;;8.77;2.13;;;;;;;;;;5363465;26;20000;-73
2024/04/21 07:18:19;;;;;;;11.85;2.00;;;;;;;;;;5339940;26;20001;-73
2024/04/21 07:20:46;;;;;;;8.60;2.10;;;;;;;;;;5368148;26;20086;-73
2024/04/21 07:23:13;;;;;;;11.77;2.60;;;;;;;;;;5375675;26;20019;-73
2024/04/21 07:25:39;;;;;;;5.65;2.05;;;;;;;;;;5374082;26;20360;-73
2024/04/21 07:28:06;;;;;;;8.48;1.83;;;;;;;;;;5374601;26;20052;-74
2024/04/21 07:30:34;;;;;;;11.90;2.42;;;;;;;;;;5370625;26;20451;-73
2024/04/21 07:33:01;;;;;;;12.13;2.28;;;;;;;;;;5357589;26;20012;-72
2024/04/21 07:35:28;;;;;;;13.85;2.63;;;;;;;;;;5374382;26;20004;-73
2024/04/21 07:37:55;;;;;;;7.47;2.00;;;;;;;;;;5374836;26;20000;-72
2024/04/21 07:40:22;;;;;;;8.63;1.65;;;;;;;;;;5374294;26;20000;-72
2024/04/21 07:42:49;;;;;;;11.43;1.92;;;;;;;;;;5375242;26;20547;-73
2024/04/21 07:45:15;;;;;;;9.30;2.00;;;;;;;;;;5374290;26;20015;-73
2024/04/21 07:47:42;;;;;;;6.40;2.20;;;;;;;;;;5374480;26;20019;-73
2024/04/21 07:50:09;;;;;;;8.05;2.10;;;;;;;;;;5374756;26;20004;-73
2024/04/21 07:52:36;;;;;;;9.18;1.83;;;;;;;;;;5377681;26;20023;-72
2024/04/21 07:55:03;;;;;;;9.18;2.78;;;;;;;;;;5375018;26;20059;-73
2024/04/21 07:57:30;;;;;;;11.40;2.65;;;;;;;;;;5358717;26;20014;-73
2024/04/21 07:59:57;;;;;;;9.98;2.05;;;;;;;;;;5380725;26;20330;-72
2024/04/21 08:02:24;;;;;;;10.38;1.98;;;;;;;;;;5377751;26;20078;-73
2024/04/21 08:04:57;;;;;;;16.80;2.25;;;;;;;;;;5349919;26;20077;-73
2024/04/21 08:07:24;;;;;;;10.70;3.28;;;;;;;;;;5342869;26;21469;-73
2024/04/21 08:09:51;;;;;;;10.50;1.83;;;;;;;;;;5364687;26;20004;-72
2024/04/21 08:12:18;;;;;;;13.10;2.58;;;;;;;;;;5377604;26;20000;-73
2024/04/21 08:14:44;;;;;;;11.43;2.42;;;;;;;;;;5347275;26;20001;-73
2024/04/21 08:17:11;;;;;;;7.43;1.88;;;;;;;;;;5363311;26;20000;-73
2024/04/21 08:19:38;;;;;;;9.98;1.98;;;;;;;;;;5377673;26;20004;-72
2024/04/21 08:22:05;;;;;;;9.23;2.03;;;;;;;;;;5377341;26;20015;-73
2024/04/21 08:24:32;;;;;;;6.88;1.80;;;;;;;;;;5355737;26;20005;-72
2024/04/21 08:26:59;;;;;;;11.35;2.97;;;;;;;;;;5363184;26;20019;-73
2024/04/21 08:29:26;;;;;;;8.57;2.08;;;;;;;;;;5377263;26;20008;-72
2024/04/21 08:31:53;;;;;;;5.93;1.95;;;;;;;;;;5357059;26;20553;-72
2024/04/21 08:34:23;;;;;;;10.95;1.90;;;;;;;;;;5357399;26;20005;-73
2024/04/21 08:36:50;;;;;;;10.45;1.83;;;;;;;;;;5377700;26;20004;-73
2024/04/21 08:39:18;;;;;;;10.73;2.35;;;;;;;;;;5377133;26;20000;-73
2024/04/21 08:41:46;;;;;;;10.45;2.13;;;;;;;;;;5354949;26;20024;-73
2024/04/21 08:44:14;;;;;;;10.23;2.00;;;;;;;;;;5377400;26;20008;-73
2024/04/21 08:46:42;;;;;;;10.88;1.98;;;;;;;;;;5377245;26;20000;-72
2024/04/21 08:49:09;;;;;;;7.82;2.13;;;;;;;;;;5376934;26;20011;-73
2024/04/21 08:51:38;;;;;;;10.55;2.50;;;;;;;;;;5375757;26;20052;-73
2024/04/21 08:54:04;;;;;;;11.55;2.28;;;;;;;;;;5355854;26;20008;-72
2024/04/21 08:56:32;;;;;;;9.02;2.08;;;;;;;;;;5378099;26;20004;-72
2024/04/21 08:59:00;;;;;;;10.43;2.90;;;;;;;;;;5377345;26;20019;-73
2024/04/21 09:01:28;;;;;;;16.75;2.78;;;;;;;;;;5353350;26;20027;-73
2024/04/21 09:03:56;;;;;;;8.18;2.53;;;;;;;;;;5376381;26;20566;-72
2024/04/21 09:06:27;;;;;;;13.43;2.70;;;;;;;;;;5353312;26;20005;-72
2024/04/21 09:08:55;;;;;;;9.55;2.40;;;;;;;;;;5360128;26;20013;-72
2024/04/21 09:11:26;;;;;;;8.43;2.38;;;;;;;;;;5371346;26;20000;-73
2024/04/21 09:13:55;;;;;;;12.38;2.20;;;;;;;;;;5377027;26;20142;-73
2024/04/21 09:16:25;;;;;;;11.85;2.45;;;;;;;;;;5352997;26;20081;-73
2024/04/21 09:18:52;;;;;;;8.43;2.17;;;;;;;;;;5382936;26;20000;-72
2024/04/21 09:21:19;;;;;;;9.13;2.28;;;;;;;;;;5376827;26;20001;-73
2024/04/21 09:23:46;;;;;;;6.53;2.15;;;;;;;;;;5376844;26;20019;-73
2024/04/21 09:26:13;;;;;;;8.30;2.13;;;;;;;;;;5380543;26;20447;-72
2024/04/21 09:28:41;;;;;;;11.25;2.80;;;;;;;;;;5380525;26;20000;-73
2024/04/21 09:31:08;;;;;;;5.55;1.95;;;;;;;;;;5376885;26;20011;-73
2024/04/21 09:33:35;;;;;;;8.43;2.30;;;;;;;;;;5377024;26;20054;-73
2024/04/21 09:36:02;;;;;;;8.27;2.45;;;;;;;;;;5376847;26;20482;-73
2024/04/21 09:38:29;;;;;;;8.23;2.35;;;;;;;;;;5376537;26;20012;-73
2024/04/21 09:40:57;;;;;;;6.45;2.05;;;;;;;;;;5377401;26;20483;-73
2024/04/21 09:43:26;;;;;;;12.75;2.60;;;;;;;;;;5376295;26;20386;-72
2024/04/21 09:45:55;;;;;;;9.23;2.50;;;;;;;;;;5376653;26;20326;-73
2024/04/21 09:48:25;;;;;;;7.18;2.33;;;;;;;;;;5376097;26;20000;-72
2024/04/21 09:50:52;;;;;;;6.65;1.80;;;;;;;;;;5376316;26;20004;-73
2024/04/21 09:53:20;;;;;;;17.33;2.40;;;;;;;;;;5376059;26;20019;-72
2024/04/21 09:55:47;;;;;;;9.23;2.97;;;;;;;;;;5376931;26;20421;-72
2024/04/21 09:58:16;;;;;;;9.05;2.60;;;;;;;;;;5375827;26;20000;-73
2024/04/21 10:00:48;;;;;;;11.57;3.15;;;;;;;;;;5376818;26;20000;-73
2024/04/21 10:03:16;;;;;;;6.72;2.60;;;;;;;;;;5375606;26;20065;-73
2024/04/21 10:05:44;;;;;;;7.53;2.50;;;;;;;;;;5376272;26;20012;-72
2024/04/21 10:08:11;;;;;;;11.43;3.47;;;;;;;;;;5376554;26;20023;-72
2024/04/21 10:10:39;;;;;;;7.72;3.03;;;;;;;;;;5376291;26;20058;-72
2024/04/21 10:13:07;;;;;;;9.73;3.20;;;;;;;;;;5375886;26;20000;-73
2024/04/21 10:15:35;;;;;;;11.18;3.28;;;;;;;;;;5375927;26;20019;-72
2024/04/21 10:18:02;;;;;;;8.43;2.78;;;;;;;;;;5376113;26;20000;-72
2024/04/21 10:20:35;;;;;;;11.10;2.90;;;;;;;;;;5376389;26;20427;-72
2024/04/21 10:23:09;;;;;;;7.50;2.75;;;;;;;;;;5376308;26;20017;-72
2024/04/21 10:25:39;;;;;;;7.72;3.00;;;;;;;;;;5375779;26;20044;-73
2024/04/21 10:28:08;;;;;;;7.72;3.08;;;;;;;;;;5381387;26;20012;-73
2024/04/21 10:30:36;;;;;;;9.85;3.55;;;;;;;;;;5375552;26;20388;-73
2024/04/21 10:33:09;;;;;;;8.38;3.63;;;;;;;;;;5392812;26;20008;-72
2024/04/21 10:35:39;;;;;;;8.93;3.00;;;;;;;;;;5393393;26;19996;-72
2024/04/21 10:38:09;;;;;;;;;;;;;;;;;;5378241;26;20643;-73
2024/04/21 10:40:40;;;;;;;9.57;3.38;;;;;;;;;;5315947;26;20349;-72
2024/04/21 10:43:10;;;;;;;13.18;3.20;;;;;;;;;;5361724;26;20004;-72
2024/04/21 10:45:38;;;;;;;7.55;2.90;;;;;;;;;;5375778;26;20000;-73
2024/04/21 10:48:07;;;;;;;10.45;3.17;;;;;;;;;;5375205;26;20012;-73
2024/04/21 10:50:36;;;;;;;7.72;3.33;;;;;;;;;;5375576;26;19996;-72
2024/04/21 10:53:07;;;;;;;11.45;3.25;;;;;;;;;;5376840;26;20423;-72
2024/04/21 10:55:35;;;;;;;7.75;2.90;;;;;;;;;;5375304;26;20004;-73
2024/04/21 10:58:06;;;;;;;8.70;2.90;;;;;;;;;;5375672;26;20000;-72
2024/04/21 11:00:37;;;;;;;10.50;3.00;;;;;;;;;;5375257;26;20007;-72
2024/04/21 11:03:05;;;;;;;9.20;2.50;;;;;;;;;;5374866;26;20001;-73
2024/04/21 11:05:59;;;;;;;8.38;2.60;;;;;;;;;;5374547;26;20588;-72
2024/04/21 11:08:29;;;;;;;6.32;2.42;;;;;;;;;;5374000;26;20016;-73
2024/04/21 11:10:57;;;;;;;6.40;2.25;;;;;;;;;;5374504;26;20435;-73
2024/04/21 11:13:24;;;;;;;7.85;2.30;;;;;;;;;;5374433;26;20243;-73
2024/04/21 11:15:51;;;;;;;7.10;2.38;;;;;;;;;;5377638;26;20001;-72
2024/04/21 11:18:18;;;;;;;7.28;2.25;;;;;;;;;;5369311;26;20016;-72
2024/04/21 11:20:45;;;;;;;9.85;2.45;;;;;;;;;;5374459;26;20008;-71
2024/04/21 11:23:16;;;;;;;7.78;2.65;;;;;;;;;;5378346;26;20000;-71
2024/04/21 11:25:46;;;;;;;8.32;2.85;;;;;;;;;;5374975;26;20000;-73
2024/04/21 11:28:15;;;;;;;8.13;3.03;;;;;;;;;;5377267;26;20008;-72
2024/04/21 11:30:42;;;;;;;7.03;2.47;;;;;;;;;;5378601;26;20481;-72
2024/04/21 11:33:12;;;;;;;7.90;2.78;;;;;;;;;;5376845;26;20380;-72
2024/04/21 11:35:40;;;;;;;7.03;2.60;;;;;;;;;;5379803;26;20000;-72
2024/04/21 11:38:07;;;;;;;6.10;2.57;;;;;;;;;;5385743;26;20819;-73
2024/04/21 11:40:38;;;;;;;7.03;2.95;;;;;;;;;;5378345;26;20289;-72
2024/04/21 11:43:05;;;;;;;7.70;2.50;;;;;;;;;;5377927;26;20076;-73
2024/04/21 11:45:32;;;;;;;6.78;2.78;;;;;;;;;;5377579;26;20080;-72
2024/04/21 11:48:02;;;;;;;8.55;3.20;;;;;;;;;;5378099;26;20023;-72
2024/04/21 11:50:29;;;;;;;8.32;3.20;;;;;;;;;;5380554;26;20008;-72
2024/04/21 11:52:55;;;;;;;9.63;2.97;;;;;;;;;;5394099;26;20004;-72
2024/04/21 11:55:22;;;;;;;9.30;2.78;;;;;;;;;;5377457;26;20435;-72
2024/04/21 11:57:49;;;;;;;7.30;2.95;;;;;;;;;;5377497;26;20032;-72
2024/04/21 12:00:16;;;;;;;5.75;2.63;;;;;;;;;;5379666;26;20052;-73
2024/04/21 12:02:43;;;;;;;4.90;2.63;;;;;;;;;;5399338;26;20405;-72
2024/04/21 12:05:10;;;;;;;7.15;2.60;;;;;;;;;;5377367;26;20419;-72
2024/04/21 12:07:37;;;;;;;8.15;2.45;;;;;;;;;;5376989;26;20052;-73
2024/04/21 12:10:03;;;;;;;6.80;2.50;;;;;;;;;;5377592;26;20012;-72
2024/04/21 12:12:30;;;;;;;5.13;2.30;;;;;;;;;;5378028;26;20000;-72
2024/04/21 12:14:57;;;;;;;6.70;2.45;;;;;;;;;;5377996;26;20000;-73
2024/04/21 12:17:24;;;;;;;5.50;2.28;;;;;;;;;;5377125;26;20012;-73
2024/04/21 12:19:52;;;;;;;7.43;2.72;;;;;;;;;;5377831;26;20019;-72
2024/04/21 12:22:22;;;;;;;5.85;2.17;;;;;;;;;;5377611;26;20000;-72
2024/04/21 12:24:49;;;;;;;8.07;2.53;;;;;;;;;;5377926;26;20326;-72
2024/04/21 12:27:16;;;;;;;6.30;2.22;;;;;;;;;;5376998;26;20357;-73
2024/04/21 12:29:43;;;;;;;5.60;2.17;;;;;;;;;;5377719;26;20001;-72
2024/04/21 12:32:09;;;;;;;6.05;2.20;;;;;;;;;;5377351;26;20019;-73
2024/04/21 12:34:38;;;;;;;6.82;2.13;;;;;;;;;;5377859;26;20077;-72
2024/04/21 12:37:05;;;;;;;5.53;2.08;;;;;;;;;;5376301;26;20032;-73
2024/04/21 12:39:31;;;;;;;6.68;2.30;;;;;;;;;;5377333;26;20435;-73
2024/04/21 12:41:58;;;;;;;7.60;2.03;;;;;;;;;;5377654;26;20008;-73
2024/04/21 12:44:25;;;;;;;8.55;2.20;;;;;;;;;;5377262;26;20012;-73
2024/04/21 12:46:53;;;;;;;6.63;2.42;;;;;;;;;;5378028;26;20008;-73
2024/04/21 12:49:20;;;;;;;10.77;2.30;;;;;;;;;;5376987;26;20008;-73
2024/04/21 12:51:47;;;;;;;12.00;2.40;;;;;;;;;;5377705;26;20012;-73
2024/04/21 12:54:14;;;;;;;7.97;2.30;;;;;;;;;;5376989;26;20326;-73
2024/04/21 12:56:46;;;;;;;7.68;2.35;;;;;;;;;;5377877;26;20032;-73
2024/04/21 12:59:12;;;;;;;10.35;2.80;;;;;;;;;;5376872;26;20430;-73
2024/04/21 13:01:39;;;;;;;7.20;2.05;;;;;;;;;;5377115;26;20001;-73
2024/04/21 13:04:07;;;;;;;6.15;2.00;;;;;;;;;;5376831;26;20000;-73
2024/04/21 13:06:34;;;;;;;6.40;1.88;;;;;;;;;;5377134;26;20431;-73
2024/04/21 13:09:01;;;;;;;5.80;2.33;;;;;;;;;;5377577;26;20019;-73
2024/04/21 13:11:28;;;;;;;9.00;2.70;;;;;;;;;;5356961;26;20414;-72
2024/04/21 13:13:55;;;;;;;7.28;2.30;;;;;;;;;;5342287;26;20073;-73
2024/04/21 13:16:22;;;;;;;9.10;2.67;;;;;;;;;;5341901;26;20044;-73
2024/04/21 13:18:49;;;;;;;7.68;2.20;;;;;;;;;;5342355;26;20075;-72
2024/04/21 13:21:15;;;;;;;6.65;2.50;;;;;;;;;;5342244;26;20456;-73
2024/04/21 13:23:42;;;;;;;6.00;2.63;;;;;;;;;;5342090;26;20759;-73
2024/04/21 13:26:10;;;;;;;6.88;2.20;;;;;;;;;;5341563;26;20323;-73
2024/04/21 13:28:36;;;;;;;7.07;2.20;;;;;;;;;;5342007;26;20049;-73
2024/04/21 13:31:03;;;;;;;5.60;2.20;;;;;;;;;;5342001;26;20019;-72
2024/04/21 13:33:30;;;;;;;7.15;2.30;;;;;;;;;;5355555;26;20001;-72
2024/04/21 13:35:57;;;;;;;7.53;2.13;;;;;;;;;;5342042;26;20004;-73
2024/04/21 13:38:24;;;;;;;8.75;2.42;;;;;;;;;;5341513;26;20327;-73
2024/04/21 13:40:51;;;;;;;8.77;2.58;;;;;;;;;;5341997;26;20001;-72
2024/04/21 13:43:17;;;;;;;7.75;2.55;;;;;;;;;;5341377;26;20332;-73
2024/04/21 13:45:44;;;;;;;9.57;2.83;;;;;;;;;;5342245;26;20012;-72
2024/04/21 13:48:12;;;;;;;7.78;2.80;;;;;;;;;;5341144;26;20444;-73
2024/04/21 13:50:39;;;;;;;7.47;2.65;;;;;;;;;;5341823;26;20037;-73
2024/04/21 13:53:07;;;;;;;6.65;2.63;;;;;;;;;;5340966;26;20005;-76
2024/04/21 13:55:34;;;;;;;6.95;2.55;;;;;;;;;;5349734;26;20013;-73
2024/04/21 13:58:01;;;;;;;10.07;3.05;;;;;;;;;;5367079;26;20320;-72
2024/04/21 14:00:28;;;;;;;7.57;3.08;;;;;;;;;;5379252;26;20009;-72
2024/04/21 14:02:55;;;;;;;11.68;3.10;;;;;;;;;;5375053;26;20015;-72
2024/04/21 14:05:22;;;;;;;9.18;3.35;;;;;;;;;;5369573;26;20041;-73
2024/04/21 14:07:50;;;;;;;10.70;3.50;;;;;;;;;;5373075;26;19996;-72
2024/04/21 14:10:17;;;;;;;8.52;3.08;;;;;;;;;;5354453;26;20012;-72
2024/04/21 14:12:44;;;;;;;7.57;4.32;;;;;;;;;;5377919;26;20004;-72
2024/04/21 14:15:11;;;;;;;10.30;3.47;;;;;;;;;;5381174;26;20287;-73
2024/04/21 14:17:38;;;;;;;12.10;4.28;;;;;;;;;;5394307;26;20789;-73
2024/04/21 14:20:05;;;;;;;8.30;3.50;;;;;;;;;;5388522;26;20411;-72
2024/04/21 14:22:32;;;;;;;14.60;4.43;;;;;;;;;;5386160;26;20450;-73
2024/04/21 14:24:59;;;;;;;12.00;3.70;;;;;;;;;;5374507;26;20446;-73
2024/04/21 14:27:26;;;;;;;6.45;3.03;;;;;;;;;;5370733;26;20079;-72
2024/04/21 14:29:52;;;;;;;9.55;3.40;;;;;;;;;;5378940;26;20035;-73
2024/04/21 14:32:26;;;;;;;7.25;2.85;;;;;;;;;;5375015;26;19999;-73
2024/04/21 14:34:53;;;;;;;9.80;3.20;;;;;;;;;;5384197;26;20545;-72
2024/04/21 14:37:20;;;;;;;9.55;3.20;;;;;;;;;;5405153;26;20007;-73
2024/04/21 14:39:47;;;;;;;6.20;2.30;;;;;;;;;;5408141;26;20329;-72